Time;durP1;ratioP1;P1;durP2;ratioP2;P2;SDS_P1;SDS_P2;PMS_P1;PMS_P2;Temp;Humidity;BMP_temperature;BMP_pressure;BME280_temperature;BME280_humidity;BME280_pressure;Samples;Min_cycle;Max_cycle;Signal;HPM_P1;HPM_P2
2023/05/07 00:01:53;;;;;;;;;;;;;;;13.87;87.13;98790.25;5064194;28;19954;-91
2023/05/07 00:04:20;;;;;;;;;;;;;;;13.85;86.91;98790.31;5061092;28;19921;-94
2023/05/07 00:06:46;;;;;;;;;;;;;;;13.80;86.69;98788.75;5064019;28;19920;-92
2023/05/07 00:09:12;;;;;;;;;;;;;;;13.72;87.88;98784.56;5073143;28;20791;-92
2023/05/07 00:11:38;;;;;;;;;;;;;;;13.69;89.32;98790.06;5065370;28;20382;-92
2023/05/07 00:14:03;;;;;;;;;;;;;;;13.68;89.09;98782.09;5069287;28;19921;-93
2023/05/07 00:16:29;;;;;;;;;;;;;;;13.67;89.01;98780.34;5083980;28;20011;-92
2023/05/07 00:18:54;;;;;;;;;;;;;;;13.66;88.82;98783.94;5070055;28;19920;-92
2023/05/07 00:21:21;;;;;;;;;;;;;;;13.67;88.66;98789.25;5085089;28;20357;-92
2023/05/07 00:23:47;;;;;;;;;;;;;;;13.64;89.29;98786.69;5065872;28;19928;-91
2023/05/07 00:26:12;;;;;;;;;;;;;;;13.55;89.74;98787.03;5067304;28;19925;-92
2023/05/07 00:28:38;;;;;;;;;;;;;;;13.59;90.30;98787.78;5067250;28;20409;-93
2023/05/07 00:31:04;;;;;;;;;;;;;;;13.57;89.83;98790.53;5067200;28;19956;-92
2023/05/07 00:33:29;;;;;;;;;;;;;;;13.56;89.61;98796.81;5091865;28;19943;-91
2023/05/07 00:35:55;;;;;;;;;;;;;;;13.53;89.97;98792.47;5075997;28;19979;-92
2023/05/07 00:38:22;;;;;;;;;;;;;;;13.51;89.95;98799.66;5044650;28;19921;-93
2023/05/07 00:40:47;;;;;;;;;;;;;;;13.47;90.20;98807.84;5046212;28;19966;-92
2023/05/07 00:43:13;;;;;;;;;;;;;;;13.39;90.66;98802.78;5048863;28;19929;-92
2023/05/07 00:45:39;;;;;;;;;;;;;;;13.33;90.53;98797.69;5043801;28;20374;-93
2023/05/07 00:48:05;;;;;;;;;;;;;;;13.30;90.47;98793.31;5048948;28;19924;-91
2023/05/07 00:50:31;;;;;;;;;;;;;;;13.15;92.18;98799.22;5043812;28;19920;-94
2023/05/07 00:52:56;;;;;;;;;;;;;;;13.11;92.15;98794.91;5047916;28;20228;-93
2023/05/07 00:55:24;;;;;;;;;;;;;;;13.07;91.93;98790.59;5050170;28;19928;-94
2023/05/07 00:57:50;;;;;;;;;;;;;;;13.02;92.17;98788.13;5049041;28;19982;-93
2023/05/07 01:00:16;;;;;;;;;;;;;;;13.02;92.29;98795.25;5044458;28;19948;-92
2023/05/07 01:02:42;;;;;;;;;;;;;;;12.96;93.00;98793.66;5046981;28;19921;-94
2023/05/07 01:05:09;;;;;;;;;;;;;;;13.00;92.50;98799.78;5059893;28;19978;-93
2023/05/07 01:07:35;;;;;;;;;;;;;;;12.97;93.53;98794.53;5056947;28;19966;-93
2023/05/07 01:10:01;;;;;;;;;;;;;;;12.89;93.27;98797.50;5045759;28;19935;-93
2023/05/07 01:12:29;;;;;;;;;;;;;;;12.85;94.73;98796.72;5046747;28;19983;-92
2023/05/07 01:14:55;;;;;;;;;;;;;;;12.85;95.29;98801.19;5045720;28;20429;-93
2023/05/07 01:17:20;;;;;;;;;;;;;;;12.79;96.06;98794.28;5046628;28;19928;-91
2023/05/07 01:19:47;;;;;;;;;;;;;;;12.76;96.24;98793.53;5045922;28;20336;-93
2023/05/07 01:22:15;;;;;;;;;;;;;;;12.70;97.72;98795.47;5049276;28;19935;-92
2023/05/07 01:24:43;;;;;;;;;;;;;;;12.67;98.34;98792.06;5044840;28;20016;-93
2023/05/07 01:27:08;;;;;;;;;;;;;;;12.63;97.93;98793.09;5058754;28;19968;-91
2023/05/07 01:29:34;;;;;;;;;;;;;;;12.60;98.93;98811.84;5062079;28;19975;-91
2023/05/07 01:32:00;;;;;;;;;;;;;;;12.56;99.14;98810.25;5045851;28;19993;-92
2023/05/07 01:34:27;;;;;;;;;;;;;;;12.49;100.00;98812.22;5048095;28;20381;-94
2023/05/07 01:36:53;;;;;;;;;;;;;;;12.47;99.00;98806.97;5050681;28;20306;-91
2023/05/07 01:39:18;;;;;;;;;;;;;;;12.40;99.03;98813.41;5054559;28;20412;-93
2023/05/07 01:41:46;;;;;;;;;;;;;;;12.38;100.00;98809.91;5054371;28;19960;-93
2023/05/07 01:44:12;;;;;;;;;;;;;;;12.40;99.44;98820.53;5052603;28;19920;-94
2023/05/07 01:46:38;;;;;;;;;;;;;;;12.41;99.76;98817.81;5050854;28;19977;-93
2023/05/07 01:49:04;;;;;;;;;;;;;;;12.41;98.56;98824.97;5054399;28;20268;-94
2023/05/07 01:51:32;;;;;;;;;;;;;;;12.33;99.49;98818.06;5054104;28;19974;-92
2023/05/07 01:53:57;;;;;;;;;;;;;;;12.37;99.79;98828.66;5054094;28;19975;-93
2023/05/07 01:56:23;;;;;;;;;;;;;;;12.37;99.97;98820.66;5054031;28;20336;-93
2023/05/07 01:58:51;;;;;;;;;;;;;;;12.37;100.00;98818.00;5053317;28;19920;-92
2023/05/07 02:01:17;;;;;;;;;;;;;;;12.39;100.00;98826.81;5052485;28;19904;-93
2023/05/07 02:03:43;;;;;;;;;;;;;;;12.38;100.00;98828.59;5053678;28;20370;-92
2023/05/07 02:06:08;;;;;;;;;;;;;;;12.35;100.00;98828.69;5051750;28;19929;-92
2023/05/07 02:08:34;;;;;;;;;;;;;;;12.33;100.00;98830.53;5053471;28;19944;-92
2023/05/07 02:11:00;;;;;;;;;;;;;;;12.31;100.00;98824.38;5053731;28;20023;-91
2023/05/07 02:13:26;;;;;;;;;;;;;;;12.28;100.00;98829.84;5053168;28;19947;-93
2023/05/07 02:15:53;;;;;;;;;;;;;;;12.21;100.00;98831.84;5052504;28;19977;-93
2023/05/07 02:18:19;;;;;;;;;;;;;;;12.19;100.00;98827.44;5053784;28;19925;-93
2023/05/07 02:20:45;;;;;;;;;;;;;;;12.13;100.00;98828.53;5053500;28;20015;-94
2023/05/07 02:23:10;;;;;;;;;;;;;;;12.10;100.00;98824.19;5053477;28;20019;-93
2023/05/07 02:25:36;;;;;;;;;;;;;;;12.05;100.00;98828.75;5054002;28;20388;-93
2023/05/07 02:28:01;;;;;;;;;;;;;;;12.02;100.00;98828.00;5069779;28;20298;-92
2023/05/07 02:30:27;;;;;;;;;;;;;;;12.01;100.00;98828.91;5050825;28;20409;-93
2023/05/07 02:32:54;;;;;;;;;;;;;;;12.00;100.00;98827.19;5052773;28;19932;-92
2023/05/07 02:35:20;;;;;;;;;;;;;;;11.99;100.00;98830.75;5056262;28;19967;-93
2023/05/07 02:37:46;;;;;;;;;;;;;;;11.92;100.00;98838.09;5071285;28;19909;-91
2023/05/07 02:40:12;;;;;;;;;;;;;;;11.87;100.00;98827.53;5066034;28;19924;-92
2023/05/07 02:42:37;;;;;;;;;;;;;;;11.83;100.00;98825.88;5067260;28;19921;-93
2023/05/07 02:45:03;;;;;;;;;;;;;;;11.75;100.00;98825.25;5063775;28;19927;-91
2023/05/07 02:47:29;;;;;;;;;;;;;;;11.66;100.00;98829.06;5065228;28;19931;-93
2023/05/07 02:49:56;;;;;;;;;;;;;;;11.67;100.00;98824.63;5068070;28;20010;-92
2023/05/07 02:52:21;;;;;;;;;;;;;;;11.66;100.00;98822.88;5069629;28;19924;-93
2023/05/07 02:54:47;;;;;;;;;;;;;;;11.66;100.00;98821.06;5065906;28;20271;-92
2023/05/07 02:57:12;;;;;;;;;;;;;;;11.67;100.00;98819.31;5067813;28;20317;-92
2023/05/07 02:59:38;;;;;;;;;;;;;;;11.64;100.00;98820.25;5066551;28;20415;-92
2023/05/07 03:02:04;;;;;;;;;;;;;;;11.60;100.00;98813.28;5067113;28;20381;-91
2023/05/07 03:04:29;;;;;;;;;;;;;;;11.61;100.00;98817.69;5067208;28;19920;-92
2023/05/07 03:06:56;;;;;;;;;;;;;;;11.60;100.00;98820.38;5068683;28;19920;-93
2023/05/07 03:09:22;;;;;;;;;;;;;;;11.56;100.00;98816.06;5067520;28;19927;-91
2023/05/07 03:11:47;;;;;;;;;;;;;;;11.55;100.00;98807.22;5065220;28;19921;-94
2023/05/07 03:14:13;;;;;;;;;;;;;;;11.52;100.00;98800.19;5067622;28;19908;-92
2023/05/07 03:16:39;;;;;;;;;;;;;;;11.50;100.00;98806.50;5065429;28;20464;-92
2023/05/07 03:19:04;;;;;;;;;;;;;;;11.50;100.00;98807.34;5066419;28;19998;-91
2023/05/07 03:21:30;;;;;;;;;;;;;;;11.48;100.00;98811.84;5066338;28;20381;-92
2023/05/07 03:23:57;;;;;;;;;;;;;;;11.45;100.00;98809.31;5067796;28;19927;-93
2023/05/07 03:26:23;;;;;;;;;;;;;;;11.43;100.00;98811.13;5067514;28;20293;-93
2023/05/07 03:28:48;;;;;;;;;;;;;;;11.38;100.00;98812.19;5067676;28;19924;-94
2023/05/07 03:31:14;;;;;;;;;;;;;;;11.37;100.00;98810.44;5068212;28;19985;-93
2023/05/07 03:33:49;;;;;;;;;;;;;;;11.36;100.00;98819.34;5065409;28;19959;-93
2023/05/07 03:36:15;;;;;;;;;;;;;;;11.33;100.00;98822.09;5058160;28;19948;-93
2023/05/07 03:38:40;;;;;;;;;;;;;;;11.28;100.00;98819.56;5052330;28;19963;-92
2023/05/07 03:41:07;;;;;;;;;;;;;;;11.22;100.00;98817.09;5052725;28;19986;-91
2023/05/07 03:43:33;;;;;;;;;;;;;;;11.16;100.00;98823.44;5053532;28;19956;-92
2023/05/07 03:45:58;;;;;;;;;;;;;;;11.13;100.00;98823.53;5055414;28;19925;-93
2023/05/07 03:48:24;;;;;;;;;;;;;;;11.07;100.00;98815.72;5056651;28;20382;-93
2023/05/07 03:50:50;;;;;;;;;;;;;;;11.07;100.00;98813.06;5056959;28;19960;-93
2023/05/07 03:53:15;;;;;;;;;;;;;;;11.02;100.00;98809.69;5055668;28;19920;-93
2023/05/07 03:55:41;;;;;;;;;;;;;;;11.01;100.00;98810.56;5054981;28;19920;-93
2023/05/07 03:58:08;;;;;;;;;;;;;;;11.03;100.00;98816.72;5054210;28;19979;-92
2023/05/07 04:00:37;;;;;;;;;;;;;;;11.05;100.00;98821.09;5054468;28;20396;-92
2023/05/07 04:03:04;;;;;;;;;;;;;;;11.06;100.00;98813.97;5055153;28;19921;-92
2023/05/07 04:05:30;;;;;;;;;;;;;;;11.08;100.00;98805.06;5056117;28;20378;-91
2023/05/07 04:07:55;;;;;;;;;;;;;;;11.11;100.00;98809.41;5056174;28;19971;-92
2023/05/07 04:10:21;;;;;;;;;;;;;;;11.14;100.00;98822.63;5056149;28;19925;-92
2023/05/07 04:12:47;;;;;;;;;;;;;;;11.18;100.00;98818.09;5055887;28;19975;-92
2023/05/07 04:15:14;;;;;;;;;;;;;;;11.17;100.00;98819.00;5054831;28;19932;-92
2023/05/07 04:17:41;;;;;;;;;;;;;;;11.14;100.00;98821.75;5056268;28;19921;-93
2023/05/07 04:20:08;;;;;;;;;;;;;;;11.12;100.00;98827.09;5055808;28;19970;-92
2023/05/07 04:22:34;;;;;;;;;;;;;;;11.10;100.00;98823.63;5055341;28;19920;-92
2023/05/07 04:25:00;;;;;;;;;;;;;;;11.16;100.00;98828.78;5056215;28;19927;-92
2023/05/07 04:27:26;;;;;;;;;;;;;;;11.19;100.00;98828.69;5056004;28;19929;-92
2023/05/07 04:29:55;;;;;;;;;;;;;;;11.23;100.00;98830.38;5055907;28;19928;-92
2023/05/07 04:32:24;;;;;;;;;;;;;;;11.26;100.00;98834.72;5054402;28;19927;-93
2023/05/07 04:34:50;;;;;;;;;;;;;;;11.27;100.00;98837.31;5055031;28;19920;-92
2023/05/07 04:37:15;;;;;;;;;;;;;;;11.24;100.00;98834.75;5065230;28;19981;-90
2023/05/07 04:39:41;;;;;;;;;;;;;;;11.26;100.00;98835.59;5065495;28;19920;-93
2023/05/07 04:42:08;;;;;;;;;;;;;;;11.27;100.00;98839.13;5069320;28;19952;-91
2023/05/07 04:44:34;;;;;;;;;;;;;;;11.31;100.00;98843.44;5066488;28;20378;-91
2023/05/07 04:47:00;;;;;;;;;;;;;;;11.36;100.00;98833.50;5070946;28;19934;-92
2023/05/07 04:49:27;;;;;;;;;;;;;;;11.41;100.00;98844.06;5067060;28;19950;-93
2023/05/07 04:51:52;;;;;;;;;;;;;;;11.46;100.00;98844.78;5069622;28;19931;-91
2023/05/07 04:54:18;;;;;;;;;;;;;;;11.48;100.00;98841.16;5065299;28;20015;-92
2023/05/07 04:56:43;;;;;;;;;;;;;;;11.50;100.00;98849.97;5067094;28;19921;-92
2023/05/07 04:59:09;;;;;;;;;;;;;;;11.54;100.00;98842.78;5071449;28;19924;-93
2023/05/07 05:01:34;;;;;;;;;;;;;;;11.60;100.00;98842.59;5066115;28;19927;-93
2023/05/07 05:04:00;;;;;;;;;;;;;;;11.66;100.00;98845.03;5067933;28;19921;-92
2023/05/07 05:06:27;;;;;;;;;;;;;;;11.79;100.00;98842.00;5066168;28;19920;-92
2023/05/07 05:08:53;;;;;;;;;;;;;;;12.33;100.00;98835.88;5086229;28;19924;-93
2023/05/07 05:11:18;;;;;;;;;;;;;;;12.82;97.59;98830.69;5064452;28;19924;-93
2023/05/07 05:13:44;;;;;;;;;;;;;;;13.23;93.85;98828.28;5084804;28;20440;-92
2023/05/07 05:16:09;;;;;;;;;;;;;;;13.60;91.77;98829.59;5062413;28;20309;-92
2023/05/07 05:18:35;;;;;;;;;;;;;;;13.93;88.56;98833.66;5063610;28;20007;-92
2023/05/07 05:21:01;;;;;;;;;;;;;;;14.32;86.89;98835.63;5067951;28;19920;-92
2023/05/07 05:23:28;;;;;;;;;;;;;;;14.29;85.54;98833.09;5068904;28;20042;-92
2023/05/07 05:25:55;;;;;;;;;;;;;;;14.47;85.48;98836.81;5064911;28;19920;-93
2023/05/07 05:28:21;;;;;;;;;;;;;;;14.83;83.34;98828.16;5067501;28;19920;-93
2023/05/07 05:30:47;;;;;;;;;;;;;;;15.09;81.05;98836.88;5065040;28;19921;-92
2023/05/07 05:33:12;;;;;;;;;;;;;;;15.30;78.82;98833.22;5069677;28;19924;-92
2023/05/07 05:35:38;;;;;;;;;;;;;;;15.44;77.62;98824.56;5069610;28;19921;-92
2023/05/07 05:38:03;;;;;;;;;;;;;;;15.78;76.38;98839.97;5073045;28;19927;-94
2023/05/07 05:40:30;;;;;;;;;;;;;;;15.97;74.11;98836.44;5067719;28;19924;-93
2023/05/07 05:42:56;;;;;;;;;;;;;;;15.93;73.53;98835.69;5066145;28;20032;-92
2023/05/07 05:45:21;;;;;;;;;;;;;;;15.80;75.04;98840.75;5081174;28;19968;-94
2023/05/07 05:47:47;;;;;;;;;;;;;;;15.92;75.44;98843.84;5068547;28;19942;-92
2023/05/07 05:50:12;;;;;;;;;;;;;;;15.87;75.62;98841.34;5064608;28;20336;-92
2023/05/07 05:52:38;;;;;;;;;;;;;;;16.09;75.73;98838.53;5063747;28;19920;-94
2023/05/07 05:55:04;;;;;;;;;;;;;;;16.16;74.09;98845.31;5067465;28;19920;-92
2023/05/07 05:57:31;;;;;;;;;;;;;;;16.07;73.47;98842.19;5080706;28;19920;-94
2023/05/07 05:59:56;;;;;;;;;;;;;;;16.07;73.25;98844.88;5060023;28;19927;-93
2023/05/07 06:02:22;;;;;;;;;;;;;;;15.35;75.76;98841.06;5062874;28;19925;-94
2023/05/07 06:04:48;;;;;;;;;;;;;;;15.71;74.56;98841.22;5067522;28;19952;-92
2023/05/07 06:07:13;;;;;;;;;;;;;;;15.78;76.39;98839.97;5066867;28;19928;-92
2023/05/07 06:09:39;;;;;;;;;;;;;;;16.10;74.82;98840.25;5065176;28;19974;-91
2023/05/07 06:12:04;;;;;;;;;;;;;;;16.45;72.77;98837.66;5065346;28;19920;-93
2023/05/07 06:14:32;;;;;;;;;;;;;;;16.60;71.99;98830.63;5063387;28;19959;-93
2023/05/07 06:16:57;;;;;;;;;;;;;;;16.90;71.41;98835.44;5065669;28;20390;-92
2023/05/07 06:19:23;;;;;;;;;;;;;;;17.08;69.43;98830.91;5077291;28;19927;-92
2023/05/07 06:21:49;;;;;;;;;;;;;;;17.27;68.67;98833.50;5066929;28;19973;-94
2023/05/07 06:24:14;;;;;;;;;;;;;;;17.47;69.13;98832.41;5062590;28;19928;-94
2023/05/07 06:26:40;;;;;;;;;;;;;;;17.32;69.83;98834.09;5066659;28;19934;-93
2023/05/07 06:29:06;;;;;;;;;;;;;;;17.79;67.72;98826.13;5064940;28;19990;-93
2023/05/07 06:31:33;;;;;;;;;;;;;;;18.07;66.64;98830.00;5067567;28;20011;-93
2023/05/07 06:33:59;;;;;;;;;;;;;;;18.30;65.94;98827.81;5066368;28;20369;-92
2023/05/07 06:36:24;;;;;;;;;;;;;;;18.51;66.53;98834.63;5081508;28;19928;-93
2023/05/07 06:38:50;;;;;;;;;;;;;;;18.73;65.03;98828.84;5064502;28;19921;-93
2023/05/07 06:41:15;;;;;;;;;;;;;;;19.01;63.95;98827.22;5069004;28;19921;-91
2023/05/07 06:43:41;;;;;;;;;;;;;;;19.24;62.84;98823.13;5085065;28;19990;-93
2023/05/07 06:46:06;;;;;;;;;;;;;;;19.33;62.29;98827.94;5066502;28;19956;-94
2023/05/07 06:48:33;;;;;;;;;;;;;;;19.09;62.48;98825.78;5064242;28;20396;-93
2023/05/07 06:50:59;;;;;;;;;;;;;;;18.78;65.37;98825.91;5062184;28;19963;-93
2023/05/07 06:53:25;;;;;;;;;;;;;;;18.99;64.43;98823.75;5063929;28;19951;-92
2023/05/07 06:55:51;;;;;;;;;;;;;;;19.44;62.53;98828.13;5063820;28;19974;-93
2023/05/07 06:58:17;;;;;;;;;;;;;;;19.62;61.13;98814.47;5068834;28;19920;-92
2023/05/07 07:00:43;;;;;;;;;;;;;;;19.81;61.38;98819.59;5060518;28;19920;-92
2023/05/07 07:03:08;;;;;;;;;;;;;;;19.97;61.14;98827.56;5065346;28;20088;-92
2023/05/07 07:05:35;;;;;;;;;;;;;;;20.31;59.29;98821.66;5062090;28;19928;-92
2023/05/07 07:08:01;;;;;;;;;;;;;;;20.46;58.48;98822.50;5065574;28;19920;-93
2023/05/07 07:10:27;;;;;;;;;;;;;;;20.62;58.54;98814.25;5081662;28;20039;-92
2023/05/07 07:12:52;;;;;;;;;;;;;;;20.79;57.00;98815.81;5065254;28;19935;-95
2023/05/07 07:15:18;;;;;;;;;;;;;;;20.75;57.16;98814.28;5065073;28;20011;-94
2023/05/07 07:17:43;;;;;;;;;;;;;;;20.43;58.53;98820.00;5065538;28;19927;-93
2023/05/07 07:20:09;;;;;;;;;;;;;;;20.40;58.69;98811.22;5071746;28;19929;-93
2023/05/07 07:22:36;;;;;;;;;;;;;;;20.28;58.96;98807.53;5088894;28;19946;-94
2023/05/07 07:25:02;;;;;;;;;;;;;;;20.42;59.52;98812.00;5089279;28;20424;-92
2023/05/07 07:27:28;;;;;;;;;;;;;;;20.63;58.83;98809.72;5072605;28;19920;-92
2023/05/07 07:29:53;;;;;;;;;;;;;;;20.81;58.48;98804.91;5072172;28;19930;-93
2023/05/07 07:32:19;;;;;;;;;;;;;;;21.03;57.47;98804.28;5065997;28;19924;-93
2023/05/07 07:34:44;;;;;;;;;;;;;;;21.07;57.45;98798.53;5069313;28;20018;-93
2023/05/07 07:37:10;;;;;;;;;;;;;;;21.08;57.78;98811.13;5059702;28;19905;-93
2023/05/07 07:39:37;;;;;;;;;;;;;;;21.32;56.22;98804.97;5056081;28;19954;-94
2023/05/07 07:42:03;;;;;;;;;;;;;;;21.36;56.19;98803.78;5056698;28;19921;-93
2023/05/07 07:44:28;;;;;;;;;;;;;;;21.41;56.01;98807.03;5058418;28;19925;-93
2023/05/07 07:46:54;;;;;;;;;;;;;;;21.42;56.00;98806.06;5057786;28;19921;-94
2023/05/07 07:49:19;;;;;;;;;;;;;;;21.51;55.64;98801.81;5056925;28;19965;-95
2023/05/07 07:51:45;;;;;;;;;;;;;;;21.69;55.30;98805.06;5057254;28;19928;-95
2023/05/07 07:54:11;;;;;;;;;;;;;;;21.66;54.95;98808.84;5057275;28;19970;-93
2023/05/07 07:56:38;;;;;;;;;;;;;;;21.66;55.08;98813.38;5056357;28;20282;-94
2023/05/07 07:59:04;;;;;;;;;;;;;;;21.90;53.73;98813.44;5055792;28;21382;-94
2023/05/07 08:01:29;;;;;;;;;;;;;;;22.02;52.71;98811.72;5056124;28;20011;-94
2023/05/07 08:03:55;;;;;;;;;;;;;;;22.10;53.43;98812.00;5056934;28;20023;-93
2023/05/07 08:06:21;;;;;;;;;;;;;;;22.34;53.82;98818.34;5059339;28;19966;-94
2023/05/07 08:08:46;;;;;;;;;;;;;;;22.49;52.04;98810.91;5058124;28;20294;-93
2023/05/07 08:11:12;;;;;;;;;;;;;;;22.54;51.15;98818.69;5056412;28;19960;-93
2023/05/07 08:16:45;;;;;;;5.70;3.78;;;;;;;22.40;51.88;98808.00;5140118;27;20385;-90
2023/05/07 08:19:12;;;;;;;6.10;4.00;;;;;;;22.58;50.68;98806.63;5105127;28;20048;-92
2023/05/07 08:21:40;;;;;;;6.38;4.35;;;;;;;22.75;50.28;98810.78;5105480;28;20036;-94
2023/05/07 08:24:06;;;;;;;7.03;4.10;;;;;;;22.37;50.58;98787.44;5097501;28;20026;-94
2023/05/07 08:26:32;;;;;;;5.72;4.20;;;;;;;22.40;50.15;98816.13;5098969;28;20040;-94
2023/05/07 08:28:58;;;;;;;7.10;4.55;;;;;;;22.52;49.02;98813.38;5100812;28;20398;-94
2023/05/07 08:31:24;;;;;;;7.18;4.53;;;;;;;22.40;49.68;98770.94;5101518;28;20040;-93
2023/05/07 08:33:51;;;;;;;6.53;4.25;;;;;;;22.58;49.28;98786.81;5096224;28;20043;-96
2023/05/07 08:36:19;;;;;;;7.53;4.50;;;;;;;22.24;49.54;98792.91;5103397;28;20404;-93
2023/05/07 08:38:45;;;;;;;6.93;4.35;;;;;;;22.66;48.90;98803.31;5106396;28;20050;-93
2023/05/07 08:41:11;;;;;;;7.80;4.60;;;;;;;23.01;48.40;98788.91;5101705;28;20028;-95
2023/05/07 08:43:40;;;;;;;5.20;3.90;;;;;;;23.13;48.04;98777.13;5104051;28;20056;-95
2023/05/07 08:46:08;;;;;;;6.03;4.03;;;;;;;23.51;47.42;98784.94;5097638;28;20039;-93
2023/05/07 08:48:35;;;;;;;5.95;3.95;;;;;;;22.94;47.76;98769.53;5100656;28;20100;-93
2023/05/07 08:51:02;;;;;;;5.97;3.90;;;;;;;23.04;47.54;98794.97;5100483;28;20044;-93
2023/05/07 08:53:28;;;;;;;5.45;4.13;;;;;;;23.34;47.29;98799.84;5105055;28;20127;-93
2023/05/07 08:55:55;;;;;;;6.15;4.10;;;;;;;23.29;48.51;98790.34;5102853;28;20127;-96
2023/05/07 08:58:21;;;;;;;6.20;4.10;;;;;;;23.45;47.55;98780.00;5100277;28;20078;-92
2023/05/07 09:00:47;;;;;;;9.20;6.05;;;;;;;23.41;48.96;98786.66;5104927;28;20510;-91
2023/05/07 09:03:13;;;;;;;10.52;6.03;;;;;;;23.37;47.21;98772.44;5102085;28;20139;-93
2023/05/07 09:05:39;;;;;;;10.63;6.38;;;;;;;23.73;47.91;98789.50;5107593;28;20044;-94
2023/05/07 09:08:07;;;;;;;10.65;6.75;;;;;;;23.77;47.20;98784.72;5104592;28;20036;-91
2023/05/07 09:10:34;;;;;;;12.85;7.43;;;;;;;24.02;47.32;98783.56;5097882;28;20516;-92
2023/05/07 09:13:00;;;;;;;8.73;6.07;;;;;;;24.07;47.70;98791.31;5102721;28;20093;-95
2023/05/07 09:15:26;;;;;;;8.98;6.10;;;;;;;24.08;47.03;98803.94;5097433;28;20043;-93
2023/05/07 09:17:52;;;;;;;8.35;5.88;;;;;;;23.87;48.11;98765.81;5104528;28;20091;-93
2023/05/07 09:20:18;;;;;;;10.15;7.22;;;;;;;24.15;48.19;98791.56;5103400;28;20068;-91
2023/05/07 09:22:45;;;;;;;10.55;6.57;;;;;;;24.27;48.69;98784.25;5101321;28;20040;-93
2023/05/07 09:25:12;;;;;;;8.68;5.85;;;;;;;24.49;48.47;98783.34;5099996;28;20068;-94
2023/05/07 09:27:38;;;;;;;6.72;4.80;;;;;;;24.55;46.28;98796.44;5084420;28;20040;-93
2023/05/07 09:30:06;;;;;;;6.45;4.18;;;;;;;24.28;46.74;98786.84;5086934;28;20039;-93
2023/05/07 09:32:34;;;;;;;4.90;3.37;;;;;;;24.59;43.55;98795.16;5083946;28;20112;-94
2023/05/07 09:35:00;;;;;;;4.25;3.00;;;;;;;24.74;41.64;98791.13;5086539;28;20147;-93
2023/05/07 09:37:27;;;;;;;4.50;3.17;;;;;;;24.94;41.64;98791.28;5088653;28;20126;-94
2023/05/07 09:39:53;;;;;;;5.30;3.50;;;;;;;25.02;41.73;98778.75;5084976;28;20505;-93
2023/05/07 09:42:26;;;;;;;3.92;3.05;;;;;;;24.75;40.25;98790.16;5090720;28;20031;-94
2023/05/07 09:44:52;;;;;;;4.38;2.90;;;;;;;24.86;41.22;98781.06;5087178;28;20042;-93
2023/05/07 09:47:19;;;;;;;3.75;2.90;;;;;;;24.99;40.71;98775.44;5086452;28;20036;-93
2023/05/07 09:49:48;;;;;;;4.45;2.88;;;;;;;25.25;39.88;98780.50;5086590;28;20040;-93
2023/05/07 09:52:15;;;;;;;4.68;3.28;;;;;;;25.30;39.85;98789.13;5086578;28;20036;-93
2023/05/07 09:54:43;;;;;;;6.45;3.20;;;;;;;25.26;40.02;98765.88;5088009;28;20081;-92
2023/05/07 09:57:10;;;;;;;4.70;3.10;;;;;;;25.35;39.61;98771.41;5092743;28;20044;-94
2023/05/07 09:59:38;;;;;;;5.10;3.40;;;;;;;25.33;39.01;98767.94;5122753;27;20055;-94
2023/05/07 10:02:06;;;;;;;6.05;3.00;;;;;;;24.53;38.40;98757.63;5087650;28;20059;-94
2023/05/07 10:04:32;;;;;;;5.18;3.00;;;;;;;24.53;39.96;98749.47;5091624;28;20071;-93
2023/05/07 10:06:58;;;;;;;5.85;3.40;;;;;;;24.96;39.34;98765.69;5087551;28;20043;-92
2023/05/07 10:09:26;;;;;;;3.83;2.75;;;;;;;25.14;38.55;98736.00;5086042;28;20035;-93
2023/05/07 10:11:52;;;;;;;6.65;3.00;;;;;;;25.12;37.87;98745.31;5087612;28;20134;-94
2023/05/07 10:14:20;;;;;;;5.43;3.65;;;;;;;25.39;38.73;98740.19;5086038;28;20504;-93
2023/05/07 10:16:48;;;;;;;4.30;2.83;;;;;;;25.13;35.00;98737.00;5084119;28;20526;-93
2023/05/07 10:19:14;;;;;;;4.80;3.00;;;;;;;25.27;36.91;98746.72;5089985;28;20064;-93
2023/05/07 10:21:44;;;;;;;5.78;3.70;;;;;;;25.39;36.45;98747.47;5089349;28;20066;-92
2023/05/07 10:24:16;;;;;;;4.38;2.80;;;;;;;25.63;34.88;98752.59;5088165;28;20048;-93
2023/05/07 10:26:45;;;;;;;3.15;2.30;;;;;;;25.65;33.63;98734.25;5085546;28;20124;-92
2023/05/07 10:29:17;;;;;;;3.50;2.60;;;;;;;25.82;33.48;98730.88;5078772;28;20047;-94
2023/05/07 10:31:58;;;;;;;4.40;2.90;;;;;;;25.49;32.06;98744.81;5088471;28;20044;-93
2023/05/07 10:34:27;;;;;;;3.28;2.13;;;;;;;25.35;29.31;98719.69;5085232;28;20494;-93
2023/05/07 10:36:56;;;;;;;3.63;2.45;;;;;;;25.44;28.30;98717.13;5087709;28;20042;-92
2023/05/07 10:39:22;;;;;;;3.53;2.40;;;;;;;25.61;31.74;98722.78;5087247;28;20066;-93
2023/05/07 10:41:49;;;;;;;3.10;2.38;;;;;;;25.51;31.13;98732.78;5087942;28;20059;-93
2023/05/07 10:44:26;;;;;;;4.05;2.65;;;;;;;25.34;31.54;98723.38;5083682;28;20045;-93
2023/05/07 10:47:06;;;;;;;3.45;2.45;;;;;;;25.17;31.54;98735.72;5083528;28;20064;-94
2023/05/07 10:49:32;;;;;;;5.00;3.03;;;;;;;25.06;33.42;98713.19;5088063;28;20059;-92
2023/05/07 10:52:15;;;;;;;3.35;2.60;;;;;;;25.32;33.06;98736.28;5086826;28;20040;-93
2023/05/07 10:54:42;;;;;;;3.22;2.42;;;;;;;25.72;33.56;98730.00;5085539;28;20043;-92
2023/05/07 10:57:36;;;;;;;3.45;2.50;;;;;;;25.71;33.63;98735.56;5086477;28;20489;-94
2023/05/07 11:00:03;;;;;;;5.03;2.90;;;;;;;25.69;33.40;98719.38;5090868;28;20039;-91
2023/05/07 11:03:01;;;;;;;3.85;2.80;;;;;;;25.73;32.61;98736.31;5086160;28;20466;-96
2023/05/07 11:05:30;;;;;;;10.88;3.03;;;;;;;25.50;34.59;98719.28;5085670;28;20051;-93
2023/05/07 11:07:57;;;;;;;5.88;3.08;;;;;;;25.74;34.87;98718.94;5087311;28;20386;-93
2023/05/07 11:10:43;;;;;;;5.00;3.63;;;;;;;26.06;34.97;98716.03;5085024;28;20058;-92
2023/05/07 11:13:09;;;;;;;7.15;3.38;;;;;;;25.31;34.55;98720.06;5086199;28;20047;-94
2023/05/07 11:15:45;;;;;;;4.88;3.40;;;;;;;25.15;34.87;98710.50;5083833;28;20040;-94
2023/05/07 11:18:16;;;;;;;4.35;2.80;;;;;;;25.30;35.51;98718.34;5084970;28;20482;-94
2023/05/07 11:20:50;;;;;;;4.55;3.15;;;;;;;25.73;34.49;98728.13;5086485;28;20064;-94
2023/05/07 11:24:08;;;;;;;3.90;2.90;;;;;;;26.02;33.88;98729.09;5086536;28;20123;-93
2023/05/07 11:26:48;;;;;;;7.20;3.63;;;;;;;26.28;34.01;98711.31;5087936;28;20036;-94
2023/05/07 11:29:16;;;;;;;6.50;3.63;;;;;;;26.46;33.17;98711.47;5086312;28;20046;-93
2023/05/07 11:31:42;;;;;;;4.93;3.20;;;;;;;26.44;32.84;98708.91;5083812;28;20047;-93
2023/05/07 11:34:09;;;;;;;5.55;2.90;;;;;;;25.85;33.69;98717.97;5087090;28;20095;-93
2023/05/07 11:36:43;;;;;;;5.90;3.22;;;;;;;25.91;34.02;98692.94;5088465;28;20485;-93
2023/05/07 11:39:24;;;;;;;6.22;2.90;;;;;;;26.01;34.95;98705.56;5084378;28;20074;-92
2023/05/07 11:41:49;;;;;;;6.30;3.17;;;;;;;25.94;35.25;98690.78;5088612;28;20546;-93
2023/05/07 11:44:15;;;;;;;4.93;2.80;;;;;;;26.07;35.41;98709.59;5085956;28;20040;-92
2023/05/07 11:46:44;;;;;;;4.28;3.25;;;;;;;26.12;33.28;98710.03;5082437;28;20066;-94
2023/05/07 11:49:10;;;;;;;4.07;2.60;;;;;;;26.19;31.98;98692.09;5087267;28;20359;-93
2023/05/07 11:51:38;;;;;;;5.63;3.30;;;;;;;25.61;34.37;98711.00;5083185;28;20049;-94
2023/05/07 11:54:08;;;;;;;4.47;3.20;;;;;;;25.66;34.95;98702.47;5086594;28;20055;-92
2023/05/07 11:56:35;;;;;;;5.25;3.40;;;;;;;25.69;35.95;98704.88;5088095;28;20544;-93
2023/05/07 11:59:01;;;;;;;4.13;3.10;;;;;;;25.88;35.86;98704.97;5084974;28;20463;-93
2023/05/07 12:01:27;;;;;;;4.75;3.20;;;;;;;25.72;34.52;98690.97;5080462;28;20051;-94
2023/05/07 12:03:53;;;;;;;6.18;3.40;;;;;;;25.66;34.97;98676.06;5087470;28;20048;-94
2023/05/07 12:06:19;;;;;;;6.55;3.70;;;;;;;25.94;33.91;98689.94;5086438;28;20048;-93
2023/05/07 12:08:47;;;;;;;5.88;3.53;;;;;;;25.71;34.27;98694.72;5087413;28;20387;-91
2023/05/07 12:11:16;;;;;;;6.15;3.40;;;;;;;25.86;35.62;98673.41;5083843;28;20093;-93
2023/05/07 12:13:41;;;;;;;5.55;3.25;;;;;;;26.12;36.07;98679.19;5086494;28;20044;-94
2023/05/07 12:16:08;;;;;;;5.72;3.47;;;;;;;26.36;35.42;98679.63;5085470;28;20044;-93
2023/05/07 12:18:37;;;;;;;5.55;3.50;;;;;;;26.62;35.74;98687.25;5088081;28;20056;-93
2023/05/07 12:21:05;;;;;;;5.68;3.45;;;;;;;26.35;36.48;98677.03;5081434;28;20134;-93